sensor_id;sensor_type;location;lat;lon;timestamp;pressure;altitude;pressure_sealevel;temperature;humidity
7280;BME280;3681;52.254;10.532;2022-08-03T00:00:12;100685.09;;;24.34;100.00
7280;BME280;3681;52.254;10.532;2022-08-03T00:03:36;100684.41;;;24.08;100.00
7280;BME280;3681;52.254;10.532;2022-08-03T00:06:58;100685.22;;;24.09;100.00
7280;BME280;3681;52.254;10.532;2022-08-03T00:10:19;100678.78;;;24.23;100.00
7280;BME280;3681;52.254;10.532;2022-08-03T00:13:40;100680.19;;;24.21;100.00
7280;BME280;3681;52.254;10.532;2022-08-03T00:17:02;100672.50;;;24.18;100.00
7280;BME280;3681;52.254;10.532;2022-08-03T00:20:24;100672.00;;;24.11;100.00
7280;BME280;3681;52.254;10.532;2022-08-03T00:23:46;100664.03;;;24.04;100.00
7280;BME280;3681;52.254;10.532;2022-08-03T00:27:11;100673.16;;;23.99;100.00
7280;BME280;3681;52.254;10.532;2022-08-03T00:30:35;100675.69;;;23.91;100.00
7280;BME280;3681;52.254;10.532;2022-08-03T00:34:01;100673.81;;;23.81;100.00
7280;BME280;3681;52.254;10.532;2022-08-03T00:37:24;100661.16;;;23.75;100.00
7280;BME280;3681;52.254;10.532;2022-08-03T00:41:01;100668.03;;;23.78;100.00
7280;BME280;3681;52.254;10.532;2022-08-03T00:44:22;100661.78;;;23.67;100.00
7280;BME280;3681;52.254;10.532;2022-08-03T00:47:44;100668.03;;;23.78;100.00
7280;BME280;3681;52.254;10.532;2022-08-03T00:51:05;100660.91;;;23.71;100.00
7280;BME280;3681;52.254;10.532;2022-08-03T00:54:29;100662.31;;;23.59;100.00
7280;BME280;3681;52.254;10.532;2022-08-03T00:57:51;100654.03;;;23.59;100.00
7280;BME280;3681;52.254;10.532;2022-08-03T01:01:13;100656.78;;;23.59;100.00
7280;BME280;3681;52.254;10.532;2022-08-03T01:04:37;100654.56;;;23.71;100.00
7280;BME280;3681;52.254;10.532;2022-08-03T01:08:02;100653.25;;;23.53;100.00
7280;BME280;3681;52.254;10.532;2022-08-03T01:11:31;100651.41;;;23.33;100.00
7280;BME280;3681;52.254;10.532;2022-08-03T01:15:24;100657.09;;;23.57;100.00
7280;BME280;3681;52.254;10.532;2022-08-03T01:19:01;100653.06;;;23.24;100.00
7280;BME280;3681;52.254;10.532;2022-08-03T01:22:43;100657.19;;;23.27;100.00
7280;BME280;3681;52.254;10.532;2022-08-03T01:26:12;100657.13;;;23.47;100.00
7280;BME280;3681;52.254;10.532;2022-08-03T01:29:56;100652.22;;;23.39;100.00
7280;BME280;3681;52.254;10.532;2022-08-03T01:33:21;100649.75;;;23.37;100.00
7280;BME280;3681;52.254;10.532;2022-08-03T01:36:49;100657.22;;;23.22;100.00
7280;BME280;3681;52.254;10.532;2022-08-03T01:40:11;100653.28;;;23.48;100.00
7280;BME280;3681;52.254;10.532;2022-08-03T01:43:36;100648.66;;;23.33;100.00
7280;BME280;3681;52.254;10.532;2022-08-03T01:47:21;100655.56;;;23.21;100.00
7280;BME280;3681;52.254;10.532;2022-08-03T01:50:45;100648.41;;;23.19;100.00
7280;BME280;3681;52.254;10.532;2022-08-03T01:54:08;100648.19;;;22.96;100.00
7280;BME280;3681;52.254;10.532;2022-08-03T01:57:34;100649.84;;;22.97;100.00
7280;BME280;3681;52.254;10.532;2022-08-03T02:01:17;100649.56;;;22.88;100.00
7280;BME280;3681;52.254;10.532;2022-08-03T02:04:42;100652.59;;;22.91;100.00
7280;BME280;3681;52.254;10.532;2022-08-03T02:08:07;100654.22;;;22.98;100.00
7280;BME280;3681;52.254;10.532;2022-08-03T02:11:32;100646.78;;;23.13;100.00
7280;BME280;3681;52.254;10.532;2022-08-03T02:14:56;100658.63;;;23.09;100.00
7280;BME280;3681;52.254;10.532;2022-08-03T02:18:20;100655.03;;;23.08;100.00
7280;BME280;3681;52.254;10.532;2022-08-03T02:21:45;100656.69;;;23.14;100.00
7280;BME280;3681;52.254;10.532;2022-08-03T02:25:20;100657.78;;;23.03;100.00
7280;BME280;3681;52.254;10.532;2022-08-03T02:28:46;100652.31;;;22.93;100.00
7280;BME280;3681;52.254;10.532;2022-08-03T02:32:11;100647.09;;;22.71;100.00
7280;BME280;3681;52.254;10.532;2022-08-03T02:35:34;100641.56;;;22.76;100.00
7280;BME280;3681;52.254;10.532;2022-08-03T02:38:59;100646.56;;;22.89;100.00
7280;BME280;3681;52.254;10.532;2022-08-03T02:42:23;100642.16;;;22.48;100.00
7280;BME280;3681;52.254;10.532;2022-08-03T02:45:47;100637.19;;;22.75;100.00
7280;BME280;3681;52.254;10.532;2022-08-03T02:49:10;100636.09;;;22.71;100.00
7280;BME280;3681;52.254;10.532;2022-08-03T02:52:54;100638.00;;;22.86;100.00
7280;BME280;3681;52.254;10.532;2022-08-03T02:56:19;100635.25;;;22.81;100.00
7280;BME280;3681;52.254;10.532;2022-08-03T02:59:41;100635.56;;;22.89;100.00
7280;BME280;3681;52.254;10.532;2022-08-03T03:03:04;100635.56;;;22.89;100.00
7280;BME280;3681;52.254;10.532;2022-08-03T03:06:27;100639.94;;;22.80;100.00
7280;BME280;3681;52.254;10.532;2022-08-03T03:09:50;100635.28;;;22.65;100.00
7280;BME280;3681;52.254;10.532;2022-08-03T03:13:14;100626.47;;;22.58;100.00
7280;BME280;3681;52.254;10.532;2022-08-03T03:16:36;100621.00;;;22.43;100.00
7280;BME280;3681;52.254;10.532;2022-08-03T03:19:59;100628.94;;;22.45;100.00
7280;BME280;3681;52.254;10.532;2022-08-03T03:23:21;100622.34;;;22.51;100.00
7280;BME280;3681;52.254;10.532;2022-08-03T03:26:44;100625.13;;;22.71;100.00
7280;BME280;3681;52.254;10.532;2022-08-03T03:30:09;100624.28;;;22.55;100.00
7280;BME280;3681;52.254;10.532;2022-08-03T03:33:31;100623.75;;;22.53;100.00
7280;BME280;3681;52.254;10.532;2022-08-03T03:36:52;100625.09;;;22.51;100.00
7280;BME280;3681;52.254;10.532;2022-08-03T03:40:14;100630.06;;;22.54;100.00
7280;BME280;3681;52.254;10.532;2022-08-03T03:43:35;100627.88;;;22.35;100.00
7280;BME280;3681;52.254;10.532;2022-08-03T03:46:58;100631.69;;;22.34;100.00
7280;BME280;3681;52.254;10.532;2022-08-03T03:50:21;100633.34;;;22.40;100.00
7280;BME280;3681;52.254;10.532;2022-08-03T03:53:53;100630.59;;;22.40;100.00
7280;BME280;3681;52.254;10.532;2022-08-03T03:57:14;100628.13;;;22.49;100.00
7280;BME280;3681;52.254;10.532;2022-08-03T04:00:36;100631.97;;;22.33;100.00
7280;BME280;3681;52.254;10.532;2022-08-03T04:03:58;100624.03;;;22.36;100.00
7280;BME280;3681;52.254;10.532;2022-08-03T04:07:46;100630.03;;;22.33;100.00
7280;BME280;3681;52.254;10.532;2022-08-03T04:11:34;100637.47;;;22.43;100.00
7280;BME280;3681;52.254;10.532;2022-08-03T04:14:58;100629.75;;;22.35;100.00
7280;BME280;3681;52.254;10.532;2022-08-03T04:18:21;100626.47;;;22.28;100.00
7280;BME280;3681;52.254;10.532;2022-08-03T04:21:48;100638.56;;;22.52;100.00
7280;BME280;3681;52.254;10.532;2022-08-03T04:25:14;100636.91;;;22.41;100.00
7280;BME280;3681;52.254;10.532;2022-08-03T04:28:39;100639.94;;;22.60;100.00
7280;BME280;3681;52.254;10.532;2022-08-03T04:32:04;100637.47;;;22.38;100.00
7280;BME280;3681;52.254;10.532;2022-08-03T04:35:28;100639.13;;;22.39;100.00
7280;BME280;3681;52.254;10.532;2022-08-03T04:39:15;100636.09;;;22.25;100.00
7280;BME280;3681;52.254;10.532;2022-08-03T04:42:39;100646.00;;;22.42;100.00
7280;BME280;3681;52.254;10.532;2022-08-03T04:46:01;100645.97;;;22.47;100.00
7280;BME280;3681;52.254;10.532;2022-08-03T04:49:23;100652.03;;;22.49;100.00
7280;BME280;3681;52.254;10.532;2022-08-03T04:52:45;100651.47;;;22.72;100.00
7280;BME280;3681;52.254;10.532;2022-08-03T04:56:08;100644.63;;;22.54;100.00
7280;BME280;3681;52.254;10.532;2022-08-03T04:59:30;100648.75;;;22.87;100.00
7280;BME280;3681;52.254;10.532;2022-08-03T05:02:51;100653.38;;;22.82;100.00
7280;BME280;3681;52.254;10.532;2022-08-03T05:06:14;100660.56;;;22.88;100.00
7280;BME280;3681;52.254;10.532;2022-08-03T05:09:36;100661.38;;;22.93;100.00
7280;BME280;3681;52.254;10.532;2022-08-03T05:13:13;100659.44;;;23.04;100.00
7280;BME280;3681;52.254;10.532;2022-08-03T05:16:34;100667.97;;;22.87;100.00
7280;BME280;3681;52.254;10.532;2022-08-03T05:19:56;100668.78;;;23.03;100.00
7280;BME280;3681;52.254;10.532;2022-08-03T05:23:17;100665.44;;;23.22;100.00
7280;BME280;3681;52.254;10.532;2022-08-03T05:26:38;100662.41;;;23.28;100.00
7280;BME280;3681;52.254;10.532;2022-08-03T05:30:02;100657.63;;;23.59;100.00
7280;BME280;3681;52.254;10.532;2022-08-03T05:33:44;100654.94;;;23.49;100.00
7280;BME280;3681;52.254;10.532;2022-08-03T05:37:07;100653.75;;;23.70;100.00
7280;BME280;3681;52.254;10.532;2022-08-03T05:40:28;100652.91;;;23.75;100.00
7280;BME280;3681;52.254;10.532;2022-08-03T05:43:50;100652.88;;;23.85;100.00
7280;BME280;3681;52.254;10.532;2022-08-03T05:47:14;100654.59;;;24.20;100.00
7280;BME280;3681;52.254;10.532;2022-08-03T05:50:35;100658.47;;;24.19;100.00
7280;BME280;3681;52.254;10.532;2022-08-03T05:54:02;100651.41;;;24.03;100.00
7280;BME280;3681;52.254;10.532;2022-08-03T05:57:23;100652.06;;;24.24;100.00
7280;BME280;3681;52.254;10.532;2022-08-03T06:00:45;100647.03;;;24.75;100.00
7280;BME280;3681;52.254;10.532;2022-08-03T06:04:08;100644.00;;;24.72;100.00
7280;BME280;3681;52.254;10.532;2022-08-03T06:07:30;100651.06;;;24.83;100.00
7280;BME280;3681;52.254;10.532;2022-08-03T06:10:52;100648.53;;;25.21;100.00
7280;BME280;3681;52.254;10.532;2022-08-03T06:14:13;100644.59;;;25.27;100.00
7280;BME280;3681;52.254;10.532;2022-08-03T06:17:43;100640.38;;;25.11;100.00
7280;BME280;3681;52.254;10.532;2022-08-03T06:21:06;100646.44;;;25.55;100.00
7280;BME280;3681;52.254;10.532;2022-08-03T06:24:34;100647.63;;;25.49;100.00
7280;BME280;3681;52.254;10.532;2022-08-03T06:27:56;100651.06;;;25.41;100.00
7280;BME280;3681;52.254;10.532;2022-08-03T06:31:18;100652.22;;;25.83;100.00
7280;BME280;3681;52.254;10.532;2022-08-03T06:34:42;100648.50;;;25.69;100.00
7280;BME280;3681;52.254;10.532;2022-08-03T06:38:04;100657.72;;;26.21;100.00
7280;BME280;3681;52.254;10.532;2022-08-03T06:41:27;100655.16;;;25.68;100.00
7280;BME280;3681;52.254;10.532;2022-08-03T06:45:00;100659.03;;;26.09;100.00
7280;BME280;3681;52.254;10.532;2022-08-03T06:48:22;100652.88;;;26.50;100.00
7280;BME280;3681;52.254;10.532;2022-08-03T06:51:44;100662.09;;;26.46;100.00
7280;BME280;3681;52.254;10.532;2022-08-03T06:55:26;100662.38;;;26.63;100.00
7280;BME280;3681;52.254;10.532;2022-08-03T06:58:48;100659.03;;;27.26;100.00
7280;BME280;3681;52.254;10.532;2022-08-03T07:02:09;100663.53;;;27.08;100.00
7280;BME280;3681;52.254;10.532;2022-08-03T07:05:38;100666.53;;;27.53;100.00
7280;BME280;3681;52.254;10.532;2022-08-03T07:09:00;100671.22;;;27.39;100.00
7280;BME280;3681;52.254;10.532;2022-08-03T07:12:23;100674.53;;;27.55;100.00
7280;BME280;3681;52.254;10.532;2022-08-03T07:15:45;100679.75;;;27.84;100.00
7280;BME280;3681;52.254;10.532;2022-08-03T07:19:15;100685.22;;;28.25;100.00
7280;BME280;3681;52.254;10.532;2022-08-03T07:22:36;100682.63;;;27.79;100.00
7280;BME280;3681;52.254;10.532;2022-08-03T07:25:58;100678.47;;;28.54;100.00
7280;BME280;3681;52.254;10.532;2022-08-03T07:29:20;100683.75;;;28.28;100.00
7280;BME280;3681;52.254;10.532;2022-08-03T07:32:41;100675.13;;;28.88;100.00
7280;BME280;3681;52.254;10.532;2022-08-03T07:36:09;100679.78;;;28.56;100.00
7280;BME280;3681;52.254;10.532;2022-08-03T07:39:30;100676.31;;;29.26;100.00
7280;BME280;3681;52.254;10.532;2022-08-03T07:42:52;100678.09;;;29.22;100.00
7280;BME280;3681;52.254;10.532;2022-08-03T07:46:14;100677.53;;;29.43;100.00
7280;BME280;3681;52.254;10.532;2022-08-03T07:49:40;100677.88;;;29.90;100.00
7280;BME280;3681;52.254;10.532;2022-08-03T07:53:01;100680.22;;;30.22;100.00
7280;BME280;3681;52.254;10.532;2022-08-03T07:56:22;100676.28;;;30.15;100.00
7280;BME280;3681;52.254;10.532;2022-08-03T07:59:44;100676.78;;;30.25;100.00
7280;BME280;3681;52.254;10.532;2022-08-03T08:03:33;100676.44;;;30.88;100.00
7280;BME280;3681;52.254;10.532;2022-08-03T08:07:12;100672.22;;;30.55;100.00
7280;BME280;3681;52.254;10.532;2022-08-03T08:10:34;100670.91;;;31.34;100.00
7280;BME280;3681;52.254;10.532;2022-08-03T08:13:56;100671.34;;;31.45;100.00
7280;BME280;3681;52.254;10.532;2022-08-03T08:17:21;100662.72;;;31.68;100.00
7280;BME280;3681;52.254;10.532;2022-08-03T08:20:43;100671.75;;;31.94;100.00
7280;BME280;3681;52.254;10.532;2022-08-03T08:24:05;100662.59;;;32.14;100.00
7280;BME280;3681;52.254;10.532;2022-08-03T08:27:42;100658.66;;;32.36;100.00
7280;BME280;3681;52.254;10.532;2022-08-03T08:31:23;100668.13;;;31.34;100.00
7280;BME280;3681;52.254;10.532;2022-08-03T08:34:45;100669.03;;;31.85;100.00
7280;BME280;3681;52.254;10.532;2022-08-03T08:38:07;100659.06;;;32.26;100.00
7280;BME280;3681;52.254;10.532;2022-08-03T08:41:29;100657.66;;;32.53;100.00
7280;BME280;3681;52.254;10.532;2022-08-03T08:44:53;100664.78;;;32.51;100.00
7280;BME280;3681;52.254;10.532;2022-08-03T08:48:17;100652.38;;;32.93;100.00
7280;BME280;3681;52.254;10.532;2022-08-03T08:51:42;100662.41;;;32.74;100.00
7280;BME280;3681;52.254;10.532;2022-08-03T08:55:22;100665.38;;;32.14;100.00
7280;BME280;3681;52.254;10.532;2022-08-03T08:58:46;100661.22;;;32.41;100.00
7280;BME280;3681;52.254;10.532;2022-08-03T09:02:09;100667.34;;;32.89;100.00
7280;BME280;3681;52.254;10.532;2022-08-03T09:05:30;100659.97;;;32.84;100.00
7280;BME280;3681;52.254;10.532;2022-08-03T09:09:12;100659.03;;;33.38;100.00
7280;BME280;3681;52.254;10.532;2022-08-03T09:12:55;100656.34;;;33.05;100.00
7280;BME280;3681;52.254;10.532;2022-08-03T09:16:18;100662.72;;;32.93;100.00
7280;BME280;3681;52.254;10.532;2022-08-03T09:19:40;100662.69;;;32.60;100.00
7280;BME280;3681;52.254;10.532;2022-08-03T09:23:22;100659.84;;;33.26;100.00
7280;BME280;3681;52.254;10.532;2022-08-03T09:27:05;100658.81;;;33.80;97.69
7280;BME280;3681;52.254;10.532;2022-08-03T09:30:29;100660.78;;;33.18;99.25
7280;BME280;3681;52.254;10.532;2022-08-03T09:33:54;100652.16;;;33.11;99.22
7280;BME280;3681;52.254;10.532;2022-08-03T09:37:19;100649.78;;;32.88;100.00
7280;BME280;3681;52.254;10.532;2022-08-03T09:41:16;100646.09;;;33.09;100.00
7280;BME280;3681;52.254;10.532;2022-08-03T09:44:39;100650.06;;;33.20;100.00
7280;BME280;3681;52.254;10.532;2022-08-03T09:48:22;100645.44;;;33.73;95.44
7280;BME280;3681;52.254;10.532;2022-08-03T09:51:44;100646.03;;;33.54;96.44
7280;BME280;3681;52.254;10.532;2022-08-03T09:55:26;100640.38;;;33.91;95.47
7280;BME280;3681;52.254;10.532;2022-08-03T09:59:09;100641.00;;;33.72;93.09
7280;BME280;3681;52.254;10.532;2022-08-03T10:02:30;100652.38;;;32.93;96.28
7280;BME280;3681;52.254;10.532;2022-08-03T10:05:54;100647.53;;;33.15;95.63
7280;BME280;3681;52.254;10.532;2022-08-03T10:09:20;100636.22;;;33.97;94.38
7280;BME280;3681;52.254;10.532;2022-08-03T10:12:42;100647.69;;;34.20;92.12
7280;BME280;3681;52.254;10.532;2022-08-03T10:16:07;100645.94;;;33.51;93.33
7280;BME280;3681;52.254;10.532;2022-08-03T10:19:44;100640.16;;;34.36;90.20
7280;BME280;3681;52.254;10.532;2022-08-03T10:23:07;100645.41;;;34.38;90.66
7280;BME280;3681;52.254;10.532;2022-08-03T10:26:30;100635.06;;;34.26;91.00
7280;BME280;3681;52.254;10.532;2022-08-03T10:29:54;100637.53;;;34.56;88.63
7280;BME280;3681;52.254;10.532;2022-08-03T10:33:18;100621.59;;;34.16;90.59
7280;BME280;3681;52.254;10.532;2022-08-03T10:37:04;100624.13;;;34.21;92.74
7280;BME280;3681;52.254;10.532;2022-08-03T10:40:30;100625.41;;;33.71;95.01
7280;BME280;3681;52.254;10.532;2022-08-03T10:44:09;100618.84;;;34.32;91.33
7280;BME280;3681;52.254;10.532;2022-08-03T10:47:34;100614.34;;;34.99;87.46
7280;BME280;3681;52.254;10.532;2022-08-03T10:50:56;100615.06;;;34.68;87.36
7280;BME280;3681;52.254;10.532;2022-08-03T10:54:39;100612.44;;;35.19;86.13
7280;BME280;3681;52.254;10.532;2022-08-03T10:58:49;100614.25;;;34.67;85.49
7280;BME280;3681;52.254;10.532;2022-08-03T11:02:17;100607.75;;;34.35;88.88
7280;BME280;3681;52.254;10.532;2022-08-03T11:05:40;100599.28;;;34.60;88.15
7280;BME280;3681;52.254;10.532;2022-08-03T11:09:17;100596.59;;;35.42;79.18
7280;BME280;3681;52.254;10.532;2022-08-03T11:12:38;100607.22;;;34.73;79.29
7280;BME280;3681;52.254;10.532;2022-08-03T11:16:03;100595.13;;;35.32;78.09
7280;BME280;3681;52.254;10.532;2022-08-03T11:19:43;100604.88;;;34.91;78.55
7280;BME280;3681;52.254;10.532;2022-08-03T11:23:18;100598.97;;;35.24;78.59
7280;BME280;3681;52.254;10.532;2022-08-03T11:27:15;100605.88;;;34.67;81.81
7280;BME280;3681;52.254;10.532;2022-08-03T11:30:38;100602.94;;;35.08;76.58
7280;BME280;3681;52.254;10.532;2022-08-03T11:34:04;100588.88;;;35.39;75.10
7280;BME280;3681;52.254;10.532;2022-08-03T11:37:26;100589.03;;;34.95;75.50
7280;BME280;3681;52.254;10.532;2022-08-03T11:40:53;100592.91;;;35.22;73.81
7280;BME280;3681;52.254;10.532;2022-08-03T11:44:39;100564.97;;;35.10;73.64
7280;BME280;3681;52.254;10.532;2022-08-03T11:48:13;100595.19;;;35.17;79.11
7280;BME280;3681;52.254;10.532;2022-08-03T11:51:37;100589.09;;;35.46;75.16
7280;BME280;3681;52.254;10.532;2022-08-03T11:54:59;100591.63;;;34.88;75.03
7280;BME280;3681;52.254;10.532;2022-08-03T11:58:21;100584.75;;;35.33;73.57
7280;BME280;3681;52.254;10.532;2022-08-03T12:02:06;100596.00;;;36.03;70.63
7280;BME280;3681;52.254;10.532;2022-08-03T12:05:35;100584.38;;;36.05;65.39
7280;BME280;3681;52.254;10.532;2022-08-03T12:08:59;100583.22;;;36.68;65.84
7280;BME280;3681;52.254;10.532;2022-08-03T12:12:20;100584.91;;;36.49;65.38
7280;BME280;3681;52.254;10.532;2022-08-03T12:15:50;100575.09;;;35.46;75.39
7280;BME280;3681;52.254;10.532;2022-08-03T12:19:13;100578.31;;;35.83;68.48
7280;BME280;3681;52.254;10.532;2022-08-03T12:22:37;100572.41;;;36.47;68.57
7280;BME280;3681;52.254;10.532;2022-08-03T12:26:04;100576.94;;;37.73;61.00
7280;BME280;3681;52.254;10.532;2022-08-03T12:29:26;100590.97;;;36.13;64.95
7280;BME280;3681;52.254;10.532;2022-08-03T12:32:48;100576.97;;;35.77;68.73
7280;BME280;3681;52.254;10.532;2022-08-03T12:36:09;100578.56;;;35.94;66.75
7280;BME280;3681;52.254;10.532;2022-08-03T12:39:31;100563.78;;;37.01;61.61
7280;BME280;3681;52.254;10.532;2022-08-03T12:42:54;100563.28;;;35.56;70.12
7280;BME280;3681;52.254;10.532;2022-08-03T12:46:17;100563.88;;;34.83;72.90
7280;BME280;3681;52.254;10.532;2022-08-03T12:49:46;100566.22;;;35.44;70.95
7280;BME280;3681;52.254;10.532;2022-08-03T12:53:08;100569.28;;;34.92;76.05
7280;BME280;3681;52.254;10.532;2022-08-03T12:56:30;100554.94;;;35.09;75.80
7280;BME280;3681;52.254;10.532;2022-08-03T12:59:58;100553.19;;;35.36;73.71
7280;BME280;3681;52.254;10.532;2022-08-03T13:03:49;100548.28;;;35.65;71.12
7280;BME280;3681;52.254;10.532;2022-08-03T13:07:13;100551.69;;;35.93;69.27
7280;BME280;3681;52.254;10.532;2022-08-03T13:10:38;100542.81;;;35.72;74.86
7280;BME280;3681;52.254;10.532;2022-08-03T13:13:59;100549.16;;;35.88;73.23
7280;BME280;3681;52.254;10.532;2022-08-03T13:17:23;100546.94;;;35.78;72.64
7280;BME280;3681;52.254;10.532;2022-08-03T13:20:45;100536.50;;;35.24;75.80
7280;BME280;3681;52.254;10.532;2022-08-03T13:24:07;100544.19;;;35.62;76.54
7280;BME280;3681;52.254;10.532;2022-08-03T13:27:29;100545.25;;;35.73;73.89
7280;BME280;3681;52.254;10.532;2022-08-03T13:31:11;100544.81;;;36.10;71.57
7280;BME280;3681;52.254;10.532;2022-08-03T13:34:33;100548.28;;;35.65;71.75
7280;BME280;3681;52.254;10.532;2022-08-03T13:37:56;100533.44;;;35.83;70.22
7280;BME280;3681;52.254;10.532;2022-08-03T13:41:17;100536.97;;;35.61;70.41
7280;BME280;3681;52.254;10.532;2022-08-03T13:44:50;100532.78;;;36.09;64.99
7280;BME280;3681;52.254;10.532;2022-08-03T13:48:12;100528.66;;;36.65;68.06
7280;BME280;3681;52.254;10.532;2022-08-03T13:51:56;100522.34;;;36.72;64.40
7280;BME280;3681;52.254;10.532;2022-08-03T13:55:17;100520.56;;;36.86;60.04
7280;BME280;3681;52.254;10.532;2022-08-03T13:58:39;100522.34;;;36.72;62.25
7280;BME280;3681;52.254;10.532;2022-08-03T14:02:01;100517.31;;;37.07;58.02
7280;BME280;3681;52.254;10.532;2022-08-03T14:05:23;100521.34;;;35.99;62.43
7280;BME280;3681;52.254;10.532;2022-08-03T14:08:45;100513.28;;;36.17;64.69
7280;BME280;3681;52.254;10.532;2022-08-03T14:12:08;100516.47;;;36.15;66.34
7280;BME280;3681;52.254;10.532;2022-08-03T14:15:30;100502.31;;;35.89;65.57
7280;BME280;3681;52.254;10.532;2022-08-03T14:18:57;100498.84;;;35.76;66.12
7280;BME280;3681;52.254;10.532;2022-08-03T14:22:20;100500.09;;;35.98;65.59
7280;BME280;3681;52.254;10.532;2022-08-03T14:25:43;100507.66;;;36.36;62.55
7280;BME280;3681;52.254;10.532;2022-08-03T14:29:11;100504.72;;;35.90;69.71
7280;BME280;3681;52.254;10.532;2022-08-03T14:32:32;100502.06;;;35.78;68.84
7280;BME280;3681;52.254;10.532;2022-08-03T14:35:54;100498.00;;;35.56;70.99
7280;BME280;3681;52.254;10.532;2022-08-03T14:39:15;100498.63;;;35.65;73.01
7280;BME280;3681;52.254;10.532;2022-08-03T14:42:39;100495.13;;;35.17;73.63
7280;BME280;3681;52.254;10.532;2022-08-03T14:46:00;100487.38;;;35.11;74.69
7280;BME280;3681;52.254;10.532;2022-08-03T14:49:21;100499.66;;;34.90;78.76
7280;BME280;3681;52.254;10.532;2022-08-03T14:53:02;100490.72;;;34.69;80.17
7280;BME280;3681;52.254;10.532;2022-08-03T14:56:24;100496.25;;;34.49;86.49
7280;BME280;3681;52.254;10.532;2022-08-03T14:59:47;100506.63;;;34.96;83.37
7280;BME280;3681;52.254;10.532;2022-08-03T15:03:17;100495.56;;;35.19;81.26
7280;BME280;3681;52.254;10.532;2022-08-03T15:06:42;100494.25;;;34.50;82.44
7280;BME280;3681;52.254;10.532;2022-08-03T15:10:10;100489.78;;;34.93;83.71
7280;BME280;3681;52.254;10.532;2022-08-03T15:13:31;100478.91;;;35.26;83.15
7280;BME280;3681;52.254;10.532;2022-08-03T15:16:54;100481.78;;;35.11;78.91
7280;BME280;3681;52.254;10.532;2022-08-03T15:20:17;100481.41;;;34.80;82.04
7280;BME280;3681;52.254;10.532;2022-08-03T15:23:51;100473.78;;;35.28;77.23
7280;BME280;3681;52.254;10.532;2022-08-03T15:27:13;100470.09;;;35.09;78.94
7280;BME280;3681;52.254;10.532;2022-08-03T15:30:34;100472.91;;;35.09;82.20
7280;BME280;3681;52.254;10.532;2022-08-03T15:33:58;100475.97;;;35.19;86.12
7280;BME280;3681;52.254;10.532;2022-08-03T15:37:20;100472.91;;;35.09;82.02
7280;BME280;3681;52.254;10.532;2022-08-03T15:40:44;100467.69;;;35.07;77.69
7280;BME280;3681;52.254;10.532;2022-08-03T15:44:06;100475.66;;;34.58;75.06
7280;BME280;3681;52.254;10.532;2022-08-03T15:47:28;100463.75;;;34.61;82.28
7280;BME280;3681;52.254;10.532;2022-08-03T15:50:51;100464.81;;;34.88;75.71
7280;BME280;3681;52.254;10.532;2022-08-03T15:54:13;100465.63;;;34.72;83.26
7280;BME280;3681;52.254;10.532;2022-08-03T15:57:34;100463.03;;;34.64;80.22
7280;BME280;3681;52.254;10.532;2022-08-03T16:01:16;100464.09;;;34.75;87.33
7280;BME280;3681;52.254;10.532;2022-08-03T16:04:39;100463.00;;;34.79;80.38
7280;BME280;3681;52.254;10.532;2022-08-03T16:08:02;100452.28;;;34.50;83.47
7280;BME280;3681;52.254;10.532;2022-08-03T16:11:28;100459.69;;;34.58;84.42
7280;BME280;3681;52.254;10.532;2022-08-03T16:14:49;100453.63;;;34.40;91.58
7280;BME280;3681;52.254;10.532;2022-08-03T16:18:12;100450.91;;;34.28;93.55
7280;BME280;3681;52.254;10.532;2022-08-03T16:21:34;100450.91;;;34.44;87.09
7280;BME280;3681;52.254;10.532;2022-08-03T16:25:09;100450.34;;;34.38;86.32
7280;BME280;3681;52.254;10.532;2022-08-03T16:28:36;100452.97;;;34.31;91.43
7280;BME280;3681;52.254;10.532;2022-08-03T16:31:58;100450.00;;;34.40;89.57
7280;BME280;3681;52.254;10.532;2022-08-03T16:35:28;100454.13;;;34.30;92.57
7280;BME280;3681;52.254;10.532;2022-08-03T16:38:49;100453.50;;;34.21;95.21
7280;BME280;3681;52.254;10.532;2022-08-03T16:42:12;100451.25;;;34.26;89.25
7280;BME280;3681;52.254;10.532;2022-08-03T16:45:33;100458.75;;;34.22;90.71
7280;BME280;3681;52.254;10.532;2022-08-03T16:48:55;100448.22;;;34.04;93.53
7280;BME280;3681;52.254;10.532;2022-08-03T16:52:16;100456.41;;;34.40;94.70
7280;BME280;3681;52.254;10.532;2022-08-03T16:55:38;100446.09;;;34.13;98.24
7280;BME280;3681;52.254;10.532;2022-08-03T16:59:14;100461.19;;;34.40;89.11
7280;BME280;3681;52.254;10.532;2022-08-03T17:02:40;100454.06;;;34.42;87.99
7280;BME280;3681;52.254;10.532;2022-08-03T17:06:07;100458.50;;;34.27;92.10
7280;BME280;3681;52.254;10.532;2022-08-03T17:09:29;100462.44;;;34.26;89.95
7280;BME280;3681;52.254;10.532;2022-08-03T17:12:58;100456.44;;;33.96;95.94
7280;BME280;3681;52.254;10.532;2022-08-03T17:16:21;100450.50;;;34.14;95.37
7280;BME280;3681;52.254;10.532;2022-08-03T17:19:43;100456.94;;;34.30;94.29
7280;BME280;3681;52.254;10.532;2022-08-03T17:23:11;100455.44;;;34.48;94.20
7280;BME280;3681;52.254;10.532;2022-08-03T17:26:54;100455.00;;;34.46;88.34
7280;BME280;3681;52.254;10.532;2022-08-03T17:30:17;100451.19;;;34.54;88.64
7280;BME280;3681;52.254;10.532;2022-08-03T17:33:41;100452.41;;;34.10;97.46
7280;BME280;3681;52.254;10.532;2022-08-03T17:37:15;100453.63;;;33.96;98.03
7280;BME280;3681;52.254;10.532;2022-08-03T17:40:57;100455.47;;;34.20;97.61
7280;BME280;3681;52.254;10.532;2022-08-03T17:44:19;100451.59;;;33.81;100.00
7280;BME280;3681;52.254;10.532;2022-08-03T17:48:00;100457.94;;;34.22;99.06
7280;BME280;3681;52.254;10.532;2022-08-03T17:51:29;100463.97;;;33.80;100.00
7280;BME280;3681;52.254;10.532;2022-08-03T17:54:58;100459.31;;;33.72;100.00
7280;BME280;3681;52.254;10.532;2022-08-03T17:58:49;100463.94;;;33.52;100.00
7280;BME280;3681;52.254;10.532;2022-08-03T18:02:23;100466.69;;;33.64;100.00
7280;BME280;3681;52.254;10.532;2022-08-03T18:06:07;100458.41;;;33.68;100.00